createdAt,value
2023-04-11T00:01:49.679Z,1.40
2023-04-11T00:04:20.590Z,2.13
2023-04-11T00:06:48.620Z,1.90
2023-04-11T00:09:17.011Z,2.27
2023-04-11T00:11:44.367Z,1.87
2023-04-11T00:14:12.717Z,2.00
2023-04-11T00:16:41.442Z,1.70
2023-04-11T00:19:09.616Z,1.73
2023-04-11T00:21:39.853Z,2.03
2023-04-11T00:24:10.534Z,1.77
2023-04-11T00:26:37.926Z,1.57
2023-04-11T00:29:05.322Z,1.70
2023-04-11T00:31:32.927Z,1.70
2023-04-11T00:34:00.318Z,1.50
2023-04-11T00:36:27.902Z,1.90
2023-04-11T00:38:55.693Z,1.60
2023-04-11T00:41:24.416Z,1.60
2023-04-11T00:43:51.764Z,1.50
2023-04-11T00:46:19.451Z,1.70
2023-04-11T00:48:47.150Z,2.30
2023-04-11T00:51:15.943Z,1.53
2023-04-11T00:53:45.551Z,1.83
2023-04-11T00:56:13.390Z,1.60
2023-04-11T00:58:41.628Z,2.00
2023-04-11T01:01:09.678Z,1.63
2023-04-11T01:03:41.356Z,1.87
2023-04-11T01:06:10.295Z,2.13
2023-04-11T01:08:39.540Z,2.50
2023-04-11T01:11:07.775Z,1.60
2023-04-11T01:13:35.910Z,1.90
2023-04-11T01:16:04.167Z,1.60
2023-04-11T01:18:31.695Z,2.00
2023-04-11T01:21:00.507Z,1.50
2023-04-11T01:23:28.350Z,2.23
2023-04-11T01:25:55.725Z,1.97
2023-04-11T01:28:23.051Z,2.27
2023-04-11T01:30:50.982Z,1.77
2023-04-11T01:33:18.891Z,2.13
2023-04-11T01:35:46.458Z,2.00
2023-04-11T01:38:13.893Z,1.60
2023-04-11T01:40:42.348Z,2.00
2023-04-11T01:43:10.011Z,2.37
2023-04-11T01:45:37.521Z,3.30
2023-04-11T01:48:08.620Z,2.20
2023-04-11T01:50:36.143Z,1.73
2023-04-11T01:53:04.887Z,2.77
2023-04-11T01:55:32.241Z,2.10
2023-04-11T01:57:59.640Z,2.43
2023-04-11T02:00:27.041Z,3.03
2023-04-11T02:02:54.525Z,2.40
2023-04-11T02:05:22.136Z,2.37
2023-04-11T02:07:49.486Z,2.70
2023-04-11T02:10:18.830Z,2.80
2023-04-11T02:12:46.367Z,2.70
2023-04-11T02:15:13.787Z,3.50
2023-04-11T02:17:45.500Z,2.50
2023-04-11T02:20:14.246Z,3.67
2023-04-11T02:22:42.145Z,2.90
2023-04-11T02:25:09.846Z,3.07
2023-04-11T02:27:37.373Z,2.20
2023-04-11T02:30:06.180Z,2.80
2023-04-11T02:32:40.196Z,1.60
2023-04-11T02:35:08.193Z,2.43
2023-04-11T02:37:35.915Z,2.60
2023-04-11T02:40:04.925Z,3.07
2023-04-11T02:42:32.353Z,2.50
2023-04-11T02:44:59.928Z,2.20
2023-04-11T02:47:29.311Z,2.47
2023-04-11T02:50:01.653Z,2.10
2023-04-11T02:52:34.868Z,1.97
2023-04-11T02:55:02.427Z,1.97
2023-04-11T02:57:29.795Z,1.73
2023-04-11T02:59:58.283Z,1.67
2023-04-11T03:02:34.832Z,1.90
2023-04-11T03:05:04.141Z,1.13
2023-04-11T03:07:34.476Z,1.80
2023-04-11T03:10:01.858Z,1.40
2023-04-11T03:12:29.301Z,1.43
2023-04-11T03:15:01.172Z,2.00
2023-04-11T03:17:28.643Z,1.60
2023-04-11T03:19:56.462Z,1.60
2023-04-11T03:22:24.904Z,1.43
2023-04-11T03:24:52.347Z,2.33
2023-04-11T03:27:22.544Z,1.40
2023-04-11T03:29:55.549Z,1.43
2023-04-11T03:32:39.004Z,1.90
2023-04-11T03:35:06.749Z,2.27
2023-04-11T03:37:35.030Z,2.10
2023-04-11T03:40:03.833Z,2.10
2023-04-11T03:42:31.930Z,2.10
2023-04-11T03:45:01.244Z,1.73
2023-04-11T03:47:29.118Z,1.73
2023-04-11T03:50:01.126Z,1.43
2023-04-11T03:52:29.912Z,1.83
2023-04-11T03:54:57.371Z,1.33
2023-04-11T03:57:29.839Z,1.50
2023-04-11T03:59:57.945Z,1.60
2023-04-11T04:02:25.951Z,1.40
2023-04-11T04:04:58.925Z,1.57
2023-04-11T04:07:30.075Z,1.90
2023-04-11T04:10:07.946Z,2.20
2023-04-11T04:12:36.066Z,1.93
2023-04-11T04:15:09.608Z,1.50
2023-04-11T04:17:37.122Z,1.93
2023-04-11T04:20:11.092Z,2.13
2023-04-11T04:22:39.940Z,1.67
2023-04-11T04:25:09.540Z,1.93
2023-04-11T04:27:36.946Z,2.27
2023-04-11T04:30:04.873Z,1.97
2023-04-11T04:32:59.188Z,1.70
2023-04-11T04:35:27.891Z,2.10
2023-04-11T04:37:57.090Z,2.20
2023-04-11T04:40:45.884Z,2.50
2023-04-11T04:43:19.214Z,1.37
2023-04-11T04:45:55.913Z,2.10
2023-04-11T04:48:27.964Z,1.93
2023-04-11T04:50:56.058Z,2.40
2023-04-11T04:53:23.147Z,1.67
2023-04-11T04:55:55.486Z,1.93
2023-04-11T04:58:23.726Z,2.00
2023-04-11T05:00:56.292Z,2.07
2023-04-11T05:03:28.018Z,1.63
2023-04-11T05:05:56.750Z,1.63
2023-04-11T05:08:24.588Z,1.40
2023-04-11T05:10:54.516Z,1.97
2023-04-11T05:13:22.089Z,2.03
2023-04-11T05:15:50.137Z,2.53
2023-04-11T05:18:17.998Z,2.27
2023-04-11T05:20:45.565Z,2.20
2023-04-11T05:23:18.059Z,1.60
2023-04-11T05:25:45.306Z,1.40
2023-04-11T05:28:15.184Z,1.50
2023-04-11T05:30:42.679Z,1.33
2023-04-11T05:33:12.761Z,1.93
2023-04-11T05:35:41.959Z,1.80
2023-04-11T05:38:09.892Z,1.33
2023-04-11T05:40:37.127Z,2.53
2023-04-11T05:43:04.211Z,1.87
2023-04-11T05:45:31.385Z,1.60
2023-04-11T05:47:58.412Z,1.03
2023-04-11T05:50:26.940Z,1.40
2023-04-11T05:52:53.952Z,1.10
2023-04-11T05:55:20.946Z,1.70
2023-04-11T05:57:48.377Z,1.10
2023-04-11T06:00:16.945Z,1.30
2023-04-11T06:02:44.917Z,1.10
2023-04-11T06:05:12.582Z,1.10
2023-04-11T06:07:40.317Z,1.30
2023-04-11T06:10:08.811Z,1.30
2023-04-11T06:12:36.350Z,1.10
2023-04-11T06:15:04.087Z,1.70
2023-04-11T06:17:31.704Z,1.10
2023-04-11T06:19:59.104Z,1.13
2023-04-11T06:22:26.461Z,1.10
2023-04-11T06:24:53.781Z,1.23
2023-04-11T06:27:21.115Z,1.37
2023-04-11T06:29:48.476Z,1.87
2023-04-11T06:32:16.312Z,1.50
2023-04-11T06:34:43.684Z,1.70
2023-04-11T06:37:11.013Z,1.60
2023-04-11T06:39:38.375Z,2.03
2023-04-11T06:42:05.742Z,1.57
2023-04-11T06:44:33.941Z,1.50
2023-04-11T06:47:01.403Z,1.40
2023-04-11T06:49:28.904Z,1.17
2023-04-11T06:51:56.582Z,1.20
2023-04-11T06:54:23.997Z,1.37
2023-04-11T06:56:51.583Z,1.10
2023-04-11T06:59:20.355Z,1.00
2023-04-11T07:01:48.817Z,1.37
2023-04-11T07:04:17.252Z,1.67
2023-04-11T07:06:44.718Z,1.20
2023-04-11T07:09:14.777Z,1.37
2023-04-11T07:11:42.233Z,1.37
2023-04-11T07:14:09.647Z,1.17
2023-04-11T07:16:37.146Z,1.00
2023-04-11T07:19:04.564Z,0.83
2023-04-11T07:21:32.439Z,1.20
2023-04-11T07:24:00.742Z,1.57
2023-04-11T07:26:32.507Z,1.10
2023-04-11T07:29:00.854Z,1.73
2023-04-11T07:31:28.349Z,1.13
2023-04-11T07:33:56.006Z,1.40
2023-04-11T07:36:23.740Z,1.43
2023-04-11T07:38:52.334Z,1.77
2023-04-11T07:41:19.663Z,1.27
2023-04-11T07:43:47.150Z,1.53
2023-04-11T07:46:15.124Z,1.53
2023-04-11T07:48:43.216Z,1.67
2023-04-11T07:51:11.004Z,1.23
2023-04-11T07:53:38.575Z,1.57
2023-04-11T07:56:06.258Z,1.47
2023-04-11T07:58:33.688Z,1.20
2023-04-11T08:01:02.608Z,1.33
2023-04-11T08:03:30.273Z,2.17
2023-04-11T08:05:57.786Z,1.50
2023-04-11T08:08:26.090Z,1.50
2023-04-11T08:10:53.585Z,1.87
2023-04-11T08:13:21.242Z,2.30
2023-04-11T08:15:48.553Z,2.90
2023-04-11T08:18:16.486Z,2.33
2023-04-11T08:20:43.910Z,2.03
2023-04-11T08:23:11.409Z,1.37
2023-04-11T08:25:39.238Z,1.43
2023-04-11T08:28:06.974Z,2.23
2023-04-11T08:30:34.338Z,1.07
2023-04-11T08:33:01.934Z,1.30
2023-04-11T08:35:29.531Z,1.60
2023-04-11T08:37:56.962Z,1.30
2023-04-11T08:40:26.443Z,1.27
2023-04-11T08:42:59.925Z,1.60
2023-04-11T08:45:28.046Z,1.70
2023-04-11T08:47:55.576Z,1.50
2023-04-11T08:50:23.144Z,1.90
2023-04-11T08:52:52.348Z,1.30
2023-04-11T08:55:19.786Z,1.70
2023-04-11T08:57:47.268Z,1.30
2023-04-11T09:00:15.430Z,3.80
2023-04-11T09:03:03.537Z,1.00
2023-04-11T09:05:39.431Z,1.20
2023-04-11T09:08:09.249Z,1.53
2023-04-11T09:10:37.954Z,1.53
2023-04-11T09:13:25.848Z,1.77
2023-04-11T09:16:13.062Z,1.53
2023-04-11T09:18:42.717Z,0.93
2023-04-11T09:21:12.958Z,3.50
2023-04-11T09:23:40.776Z,1.00
2023-04-11T09:26:09.809Z,1.47
2023-04-11T09:28:45.562Z,1.50
2023-04-11T09:31:13.919Z,1.80
2023-04-11T09:33:53.713Z,2.03
2023-04-11T09:36:24.802Z,1.20
2023-04-11T09:38:52.157Z,1.40
2023-04-11T09:41:38.343Z,1.60
2023-04-11T09:44:05.891Z,1.70
2023-04-11T09:46:33.614Z,1.33
2023-04-11T09:49:03.649Z,1.57
2023-04-11T09:51:35.739Z,1.10
2023-04-11T09:54:05.461Z,1.10
2023-04-11T09:56:34.170Z,1.03
2023-04-11T09:59:03.364Z,1.40
2023-04-11T10:01:30.773Z,1.23
2023-04-11T10:03:58.344Z,1.93
2023-04-11T10:07:14.393Z,1.63
2023-04-11T10:09:43.475Z,1.13
2023-04-11T10:12:10.608Z,1.60
2023-04-11T10:14:37.486Z,1.00
2023-04-11T10:17:23.890Z,1.20
2023-04-11T10:19:57.514Z,1.30
2023-04-11T10:22:50.249Z,1.17
2023-04-11T10:25:26.894Z,0.83
2023-04-11T10:28:03.968Z,1.10
2023-04-11T10:30:40.048Z,2.73
2023-04-11T10:33:15.972Z,2.03
2023-04-11T10:36:10.113Z,0.97
2023-04-11T10:38:40.850Z,1.30
2023-04-11T10:41:23.048Z,0.63
2023-04-11T10:43:50.640Z,0.97
2023-04-11T10:46:22.904Z,1.70
2023-04-11T10:49:04.667Z,0.80
2023-04-11T10:51:33.505Z,1.27
2023-04-11T10:54:01.939Z,1.20
2023-04-11T10:56:54.517Z,1.10
2023-04-11T10:59:34.444Z,1.07
2023-04-11T11:02:02.727Z,1.00
2023-04-11T11:04:32.836Z,1.27
2023-04-11T11:07:04.298Z,0.90
2023-04-11T11:09:32.575Z,1.13
2023-04-11T11:12:13.385Z,1.33
2023-04-11T11:14:42.934Z,1.00
2023-04-11T11:17:13.121Z,1.67
2023-04-11T11:19:47.763Z,1.20
2023-04-11T11:22:25.560Z,1.10
2023-04-11T11:24:53.238Z,1.50
2023-04-11T11:27:25.234Z,1.17
2023-04-11T11:29:53.274Z,1.30
2023-04-11T11:32:28.896Z,1.20
2023-04-11T11:34:57.598Z,1.40
2023-04-11T11:37:25.221Z,1.20
2023-04-11T11:39:52.400Z,1.33
2023-04-11T11:42:20.515Z,1.27
2023-04-11T11:44:47.610Z,1.30
2023-04-11T11:47:15.471Z,1.87
2023-04-11T11:49:54.318Z,1.00
2023-04-11T11:52:35.102Z,1.50
2023-04-11T11:55:06.141Z,1.20
2023-04-11T11:57:34.612Z,1.23
2023-04-11T12:00:05.892Z,1.10
2023-04-11T12:02:38.299Z,1.40
2023-04-11T12:05:07.246Z,1.13
2023-04-11T12:07:38.044Z,1.97
2023-04-11T12:10:09.002Z,0.97
2023-04-11T12:12:38.211Z,0.73
2023-04-11T12:15:17.388Z,1.10
2023-04-11T12:17:49.832Z,0.83
2023-04-11T12:20:16.968Z,1.20
2023-04-11T12:22:44.000Z,1.27
2023-04-11T12:25:13.624Z,1.00
2023-04-11T12:27:42.861Z,1.20
2023-04-11T12:30:12.668Z,1.67
2023-04-11T12:32:39.653Z,1.20
2023-04-11T12:35:07.621Z,1.20
2023-04-11T12:37:35.434Z,1.30
2023-04-11T12:40:06.770Z,0.90
2023-04-11T12:42:39.076Z,1.23
2023-04-11T12:45:13.434Z,1.37
2023-04-11T12:47:40.961Z,1.10
2023-04-11T12:50:09.187Z,1.27
2023-04-11T12:52:37.036Z,1.17
2023-04-11T12:55:04.888Z,1.30
2023-04-11T12:57:31.877Z,1.37
2023-04-11T12:59:59.299Z,1.23
2023-04-11T13:02:27.167Z,1.30
2023-04-11T13:04:55.268Z,1.20
2023-04-11T13:07:22.269Z,0.90
2023-04-11T13:09:49.596Z,1.90
2023-04-11T13:12:16.647Z,1.50
2023-04-11T13:14:43.610Z,1.13
2023-04-11T13:17:11.291Z,1.10
2023-04-11T13:19:38.254Z,1.70
2023-04-11T13:22:05.321Z,0.70
2023-04-11T13:24:32.387Z,1.00
2023-04-11T13:26:59.461Z,1.00
2023-04-11T13:29:27.038Z,1.00
2023-04-11T13:31:54.032Z,1.10
2023-04-11T13:34:21.039Z,1.00
2023-04-11T13:36:48.026Z,1.37
2023-04-11T13:39:15.256Z,1.97
2023-04-11T13:41:42.207Z,1.47
2023-04-11T13:44:09.141Z,1.90
2023-04-11T13:46:36.113Z,1.13
2023-04-11T13:49:05.440Z,1.10
2023-04-11T13:51:35.628Z,1.30
2023-04-11T13:54:02.649Z,1.17
2023-04-11T13:56:29.720Z,1.17
2023-04-11T13:58:56.939Z,1.20
2023-04-11T14:01:24.082Z,1.30
2023-04-11T14:03:51.338Z,0.90
2023-04-11T14:06:19.626Z,0.93
2023-04-11T14:08:48.582Z,1.47
2023-04-11T14:11:16.501Z,1.27
2023-04-11T14:13:43.537Z,1.33
2023-04-11T14:16:11.077Z,1.10
2023-04-11T14:18:38.144Z,1.20
2023-04-11T14:21:06.106Z,1.67
2023-04-11T14:23:33.198Z,1.00
2023-04-11T14:26:00.153Z,1.07
2023-04-11T14:28:27.153Z,1.20
2023-04-11T14:30:55.888Z,1.40
2023-04-11T14:33:23.649Z,1.07
2023-04-11T14:35:51.191Z,1.30
2023-04-11T14:38:18.301Z,1.20
2023-04-11T14:40:45.469Z,1.30
2023-04-11T14:43:12.437Z,1.20
2023-04-11T14:45:39.414Z,1.97
2023-04-11T14:48:06.735Z,1.50
2023-04-11T14:50:33.952Z,1.40
2023-04-11T14:53:01.164Z,1.90
2023-04-11T14:55:28.225Z,1.77
2023-04-11T14:57:56.538Z,1.30
2023-04-11T15:00:24.836Z,1.23
2023-04-11T15:02:54.420Z,1.40
2023-04-11T15:05:23.148Z,1.07
2023-04-11T15:07:52.975Z,1.00
2023-04-11T15:10:25.367Z,1.00
2023-04-11T15:12:53.264Z,1.30
2023-04-11T15:15:20.408Z,1.00
2023-04-11T15:17:49.992Z,1.47
2023-04-11T15:20:17.236Z,1.00
2023-04-11T15:22:48.263Z,1.60
2023-04-11T15:25:16.510Z,1.30
2023-04-11T15:27:44.031Z,1.27
2023-04-11T15:30:11.571Z,1.20
2023-04-11T15:32:45.009Z,1.47
2023-04-11T15:35:12.206Z,1.07
2023-04-11T15:37:39.234Z,1.23
2023-04-11T15:40:07.825Z,1.97
2023-04-11T15:42:35.870Z,1.60
2023-04-11T15:45:03.963Z,1.50
2023-04-11T15:47:31.517Z,1.30
2023-04-11T15:50:04.004Z,1.10
2023-04-11T15:52:30.983Z,1.57
2023-04-11T15:54:57.938Z,1.40
2023-04-11T15:57:26.661Z,1.50
2023-04-11T15:59:53.730Z,1.57
2023-04-11T16:02:20.802Z,0.90
2023-04-11T16:04:50.127Z,1.37
2023-04-11T16:07:19.266Z,5.87
2023-04-11T16:09:46.561Z,2.20
2023-04-11T16:12:13.922Z,1.00
2023-04-11T16:14:40.967Z,1.00
2023-04-11T16:17:07.978Z,1.93
2023-04-11T16:19:35.203Z,1.63
2023-04-11T16:22:02.245Z,2.20
2023-04-11T16:24:29.891Z,1.90
2023-04-11T16:26:59.713Z,1.10
2023-04-11T16:29:26.699Z,1.13
2023-04-11T16:31:53.754Z,1.80
2023-04-11T16:34:20.816Z,1.60
2023-04-11T16:36:47.892Z,1.53
2023-04-11T16:39:14.894Z,1.27
2023-04-11T16:41:42.075Z,1.37
2023-04-11T16:44:11.731Z,1.20
2023-04-11T16:46:42.578Z,2.40
2023-04-11T16:49:10.726Z,1.10
2023-04-11T16:51:37.924Z,2.67
2023-04-11T16:54:09.673Z,1.73
2023-04-11T16:56:39.823Z,0.93
2023-04-11T16:59:06.891Z,1.70
2023-04-11T17:01:34.033Z,4.70
2023-04-11T17:04:01.765Z,2.23
2023-04-11T17:06:29.083Z,1.60
2023-04-11T17:08:57.520Z,1.63
2023-04-11T17:11:24.978Z,2.00
2023-04-11T17:13:54.482Z,1.63
2023-04-11T17:16:22.041Z,1.10
2023-04-11T17:18:49.117Z,2.20
2023-04-11T17:21:17.040Z,1.30
2023-04-11T17:23:44.867Z,1.20
2023-04-11T17:26:12.573Z,1.43
2023-04-11T17:28:40.774Z,1.70
2023-04-11T17:31:15.590Z,1.43
2023-04-11T17:33:42.913Z,2.63
2023-04-11T17:36:12.739Z,1.30
2023-04-11T17:38:40.870Z,1.27
2023-04-11T17:41:14.301Z,1.87
2023-04-11T17:43:43.380Z,1.20
2023-04-11T17:46:10.537Z,2.00
2023-04-11T17:48:37.834Z,1.90
2023-04-11T17:51:08.284Z,2.43
2023-04-11T17:53:35.802Z,1.80
2023-04-11T17:56:04.663Z,2.27
2023-04-11T17:58:32.216Z,2.47
2023-04-11T18:00:59.621Z,1.73
2023-04-11T18:03:26.769Z,1.80
2023-04-11T18:05:54.760Z,3.03
2023-04-11T18:08:35.495Z,4.00
2023-04-11T18:11:10.006Z,3.93
2023-04-11T18:13:37.056Z,3.57
2023-04-11T18:16:04.354Z,2.70
2023-04-11T18:18:31.357Z,2.00
2023-04-11T18:21:06.654Z,1.70
2023-04-11T18:23:34.794Z,1.87
2023-04-11T18:26:01.728Z,2.30
2023-04-11T18:28:29.327Z,2.43
2023-04-11T18:30:56.806Z,2.33
2023-04-11T18:33:24.032Z,3.40
2023-04-11T18:35:51.170Z,3.87
2023-04-11T18:38:18.243Z,5.23
2023-04-11T18:40:46.077Z,6.00
2023-04-11T18:43:13.369Z,5.07
2023-04-11T18:45:41.897Z,3.33
2023-04-11T18:48:09.531Z,7.10
2023-04-11T18:50:42.817Z,6.63
2023-04-11T18:53:13.632Z,3.60
2023-04-11T18:55:41.415Z,3.00
2023-04-11T18:58:10.146Z,3.70
2023-04-11T19:00:39.172Z,3.23
2023-04-11T19:03:14.728Z,3.60
2023-04-11T19:05:43.921Z,3.13
2023-04-11T19:08:11.517Z,4.03
2023-04-11T19:10:38.589Z,11.87
2023-04-11T19:13:06.481Z,8.47
2023-04-11T19:15:33.663Z,5.87
2023-04-11T19:18:01.725Z,6.63
2023-04-11T19:20:29.496Z,6.03
2023-04-11T19:22:56.583Z,5.00
2023-04-11T19:25:23.578Z,5.00
2023-04-11T19:27:51.085Z,6.83
2023-04-11T19:30:18.006Z,4.90
2023-04-11T19:32:47.313Z,5.53
2023-04-11T19:35:14.712Z,6.10
2023-04-11T19:37:42.580Z,5.50
2023-04-11T19:40:16.673Z,5.03
2023-04-11T19:42:44.840Z,5.00
2023-04-11T19:45:12.428Z,5.90
2023-04-11T19:47:41.023Z,4.63
2023-04-11T19:50:13.300Z,4.50
2023-04-11T19:52:42.254Z,5.00
2023-04-11T19:55:10.827Z,5.90
2023-04-11T19:57:43.466Z,6.23
2023-04-11T20:00:13.385Z,5.20
2023-04-11T20:02:46.524Z,4.90
2023-04-11T20:05:18.929Z,4.20
2023-04-11T20:07:46.943Z,5.47
2023-04-11T20:10:15.893Z,4.90
2023-04-11T20:12:43.106Z,8.07
2023-04-11T20:15:11.093Z,7.50
2023-04-11T20:17:38.125Z,6.00
2023-04-11T20:20:06.576Z,4.93
2023-04-11T20:22:33.760Z,4.50
2023-04-11T20:25:00.972Z,6.17
2023-04-11T20:27:28.342Z,5.70
2023-04-11T20:29:56.612Z,5.07
2023-04-11T20:32:23.743Z,4.23
2023-04-11T20:34:50.871Z,5.67
2023-04-11T20:37:19.472Z,5.20
2023-04-11T20:39:46.764Z,6.27
2023-04-11T20:42:13.735Z,5.27
2023-04-11T20:44:42.581Z,5.47
2023-04-11T20:47:09.670Z,5.47
2023-04-11T20:49:36.627Z,6.60
2023-04-11T20:52:03.693Z,5.50
2023-04-11T20:54:30.768Z,5.07
2023-04-11T20:56:57.746Z,4.63
2023-04-11T20:59:24.722Z,4.77
2023-04-11T21:01:53.586Z,5.00
2023-04-11T21:04:21.952Z,4.43
2023-04-11T21:06:50.145Z,4.63
2023-04-11T21:09:17.585Z,4.50
2023-04-11T21:11:44.582Z,4.90
2023-04-11T21:14:11.518Z,4.90
2023-04-11T21:16:38.534Z,4.30
2023-04-11T21:19:05.514Z,5.47
2023-04-11T21:21:33.464Z,4.20
2023-04-11T21:24:01.404Z,6.27
2023-04-11T21:26:28.333Z,5.00
2023-04-11T21:28:55.968Z,4.90
2023-04-11T21:31:22.967Z,5.00
2023-04-11T21:33:49.964Z,4.53
2023-04-11T21:36:17.027Z,4.83
2023-04-11T21:38:44.055Z,4.50
2023-04-11T21:41:11.034Z,5.80
2023-04-11T21:43:38.006Z,6.17
2023-04-11T21:46:05.278Z,7.20
2023-04-11T21:48:32.293Z,8.47
2023-04-11T21:50:59.296Z,8.13
2023-04-11T21:53:26.770Z,7.77
2023-04-11T21:55:53.716Z,7.50
2023-04-11T21:58:29.053Z,7.53
2023-04-11T22:00:56.939Z,7.13
2023-04-11T22:03:24.392Z,6.20
2023-04-11T22:05:52.366Z,6.63
2023-04-11T22:08:22.186Z,5.13
2023-04-11T22:10:50.788Z,7.00
2023-04-11T22:13:19.708Z,6.43
2023-04-11T22:15:48.879Z,6.50
2023-04-11T22:18:16.028Z,5.43
2023-04-11T22:20:44.301Z,5.53
2023-04-11T22:23:13.025Z,6.20
2023-04-11T22:25:44.184Z,6.43
2023-04-11T22:28:18.429Z,5.80
2023-04-11T22:30:46.523Z,5.20
2023-04-11T22:33:14.026Z,5.27
2023-04-11T22:35:43.986Z,4.23
2023-04-11T22:38:11.600Z,4.10
2023-04-11T22:40:40.157Z,4.87
2023-04-11T22:43:07.496Z,4.23
2023-04-11T22:45:35.966Z,4.10
2023-04-11T22:48:05.883Z,4.10
2023-04-11T22:50:37.908Z,3.77
2023-04-11T22:53:05.580Z,4.80
2023-04-11T22:55:35.696Z,4.67
2023-04-11T22:58:03.530Z,4.07
2023-04-11T23:00:31.403Z,3.37
2023-04-11T23:02:59.761Z,3.13
2023-04-11T23:05:27.105Z,4.90
2023-04-11T23:07:54.545Z,5.10
2023-04-11T23:10:21.505Z,6.23
2023-04-11T23:12:49.456Z,6.30
2023-04-11T23:15:17.342Z,4.57
2023-04-11T23:17:44.972Z,5.60
2023-04-11T23:20:13.425Z,5.13
2023-04-11T23:22:43.215Z,7.27
2023-04-11T23:25:14.961Z,6.17
2023-04-11T23:27:43.466Z,7.00
2023-04-11T23:30:11.847Z,6.33
2023-04-11T23:32:39.934Z,8.00
2023-04-11T23:35:08.401Z,5.97
2023-04-11T23:37:35.356Z,3.87
2023-04-11T23:40:11.043Z,4.83
2023-04-11T23:42:39.123Z,4.67
2023-04-11T23:45:07.746Z,4.40
2023-04-11T23:47:35.138Z,4.27
2023-04-11T23:50:03.610Z,3.63
2023-04-11T23:52:31.092Z,3.37
2023-04-11T23:54:58.467Z,4.17
2023-04-11T23:57:25.541Z,4.00
2023-04-11T23:59:52.518Z,3.63
